Time;durP1;ratioP1;P1;durP2;ratioP2;P2;SDS_P1;SDS_P2;PMS_P1;PMS_P2;Temp;Humidity;BMP_temperature;BMP_pressure;BME280_temperature;BME280_humidity;BME280_pressure;Samples;Min_cycle;Max_cycle;Signal;HPM_P1;HPM_P2
2023/04/20 00:02:01;;;;;;;10.73;2.75;;;;;;;;;;5047389;28;20103;-71
2023/04/20 00:04:28;;;;;;;8.70;2.42;;;;;;;;;;5053636;28;20021;-71
2023/04/20 00:06:57;;;;;;;8.98;2.50;;;;;;;;;;5053329;28;20096;-70
2023/04/20 00:09:23;;;;;;;4.75;2.10;;;;;;;;;;5053611;28;20501;-71
2023/04/20 00:11:49;;;;;;;5.88;2.42;;;;;;;;;;5052986;28;20593;-70
2023/04/20 00:14:15;;;;;;;9.77;2.63;;;;;;;;;;5053212;28;20021;-71
2023/04/20 00:16:42;;;;;;;13.77;2.53;;;;;;;;;;5053118;28;20031;-71
2023/04/20 00:19:08;;;;;;;12.63;2.38;;;;;;;;;;5054120;28;20021;-71
2023/04/20 00:21:34;;;;;;;10.38;2.45;;;;;;;;;;5053740;28;20036;-71
2023/04/20 00:24:00;;;;;;;10.02;2.42;;;;;;;;;;5052818;28;20033;-71
2023/04/20 00:26:26;;;;;;;5.53;2.15;;;;;;;;;;5053242;28;20425;-70
2023/04/20 00:28:52;;;;;;;8.50;2.83;;;;;;;;;;5052711;28;20447;-72
2023/04/20 00:31:19;;;;;;;10.13;2.70;;;;;;;;;;5053006;28;20071;-71
2023/04/20 00:33:45;;;;;;;10.43;2.33;;;;;;;;;;5052739;28;20360;-70
2023/04/20 00:36:11;;;;;;;7.68;2.40;;;;;;;;;;5054428;28;20028;-72
2023/04/20 00:38:37;;;;;;;9.77;2.53;;;;;;;;;;5053925;28;20395;-70
2023/04/20 00:41:03;;;;;;;7.82;2.67;;;;;;;;;;5053132;28;20033;-70
2023/04/20 00:43:29;;;;;;;9.25;2.55;;;;;;;;;;5052665;28;20134;-71
2023/04/20 00:45:55;;;;;;;10.43;2.53;;;;;;;;;;5052665;28;20448;-70
2023/04/20 00:48:21;;;;;;;14.02;2.63;;;;;;;;;;5053341;28;20029;-71
2023/04/20 00:50:48;;;;;;;9.07;2.50;;;;;;;;;;5054102;28;20454;-71
2023/04/20 00:53:14;;;;;;;10.27;2.88;;;;;;;;;;5052307;28;20104;-71
2023/04/20 00:55:42;;;;;;;9.10;2.92;;;;;;;;;;5052517;28;20390;-72
2023/04/20 00:58:08;;;;;;;12.00;2.85;;;;;;;;;;5053342;28;20548;-71
2023/04/20 01:00:34;;;;;;;14.63;3.17;;;;;;;;;;5053003;28;20075;-71
2023/04/20 01:03:00;;;;;;;15.45;3.10;;;;;;;;;;5052009;28;20079;-72
2023/04/20 01:05:26;;;;;;;16.58;3.03;;;;;;;;;;5052373;28;20021;-71
2023/04/20 01:07:52;;;;;;;14.15;2.78;;;;;;;;;;5052461;28;20033;-70
2023/04/20 01:10:18;;;;;;;11.25;2.95;;;;;;;;;;5052128;28;20551;-71
2023/04/20 01:12:44;;;;;;;11.30;2.38;;;;;;;;;;5052392;28;20021;-71
2023/04/20 01:15:11;;;;;;;10.20;2.75;;;;;;;;;;5052064;28;20025;-71
2023/04/20 01:17:38;;;;;;;9.85;2.50;;;;;;;;;;5051955;28;20028;-71
2023/04/20 01:20:07;;;;;;;10.45;2.92;;;;;;;;;;5052034;28;20024;-70
2023/04/20 01:22:34;;;;;;;13.07;3.03;;;;;;;;;;5051719;28;20021;-70
2023/04/20 01:25:00;;;;;;;7.82;2.83;;;;;;;;;;5052015;28;20024;-70
2023/04/20 01:27:26;;;;;;;12.60;2.88;;;;;;;;;;5052165;28;20028;-70
2023/04/20 01:29:52;;;;;;;10.23;2.70;;;;;;;;;;5052045;28;20501;-70
2023/04/20 01:32:17;;;;;;;11.45;2.90;;;;;;;;;;5051506;28;20071;-71
2023/04/20 01:34:44;;;;;;;14.60;3.33;;;;;;;;;;5051957;28;20039;-71
2023/04/20 01:37:10;;;;;;;12.90;2.92;;;;;;;;;;5051963;28;20487;-71
2023/04/20 01:39:39;;;;;;;10.95;3.10;;;;;;;;;;5051718;28;20024;-71
2023/04/20 01:42:05;;;;;;;16.17;3.22;;;;;;;;;;5051448;28;20048;-70
2023/04/20 01:44:32;;;;;;;11.65;3.00;;;;;;;;;;5051771;28;20031;-71
2023/04/20 01:47:00;;;;;;;15.60;3.03;;;;;;;;;;5052083;28;20037;-70
2023/04/20 01:49:26;;;;;;;15.40;3.15;;;;;;;;;;5051370;28;20029;-70
2023/04/20 01:51:53;;;;;;;11.95;3.75;;;;;;;;;;5051335;28;20028;-71
2023/04/20 01:54:19;;;;;;;9.40;2.97;;;;;;;;;;5051772;28;20029;-70
2023/04/20 01:56:44;;;;;;;9.38;2.65;;;;;;;;;;5051646;28;20096;-70
2023/04/20 01:59:10;;;;;;;13.43;3.08;;;;;;;;;;5051610;28;20509;-71
2023/04/20 02:01:36;;;;;;;18.08;3.88;;;;;;;;;;5051483;28;20029;-71
2023/04/20 02:04:02;;;;;;;12.23;3.78;;;;;;;;;;5051273;28;20028;-71
2023/04/20 02:06:28;;;;;;;10.43;3.53;;;;;;;;;;5051521;28;20025;-72
2023/04/20 02:08:54;;;;;;;16.40;3.92;;;;;;;;;;5055177;28;20091;-69
2023/04/20 02:11:21;;;;;;;16.95;3.58;;;;;;;;;;5055495;28;20025;-71
2023/04/20 02:13:47;;;;;;;12.32;4.15;;;;;;;;;;5055328;28;20021;-70
2023/04/20 02:16:13;;;;;;;21.27;3.72;;;;;;;;;;5055392;28;20113;-73
2023/04/20 02:18:39;;;;;;;14.77;3.70;;;;;;;;;;5055598;28;20021;-71
2023/04/20 02:21:06;;;;;;;19.67;3.88;;;;;;;;;;5053138;28;20483;-71
2023/04/20 02:23:32;;;;;;;18.70;4.10;;;;;;;;;;5054946;28;20540;-71
2023/04/20 02:25:58;;;;;;;14.13;3.75;;;;;;;;;;5055218;28;20444;-71
2023/04/20 02:28:24;;;;;;;13.30;4.22;;;;;;;;;;5055214;28;20435;-70
2023/04/20 02:30:50;;;;;;;18.95;4.13;;;;;;;;;;5055082;28;20104;-72
2023/04/20 02:33:16;;;;;;;15.27;4.10;;;;;;;;;;5054951;28;20025;-72
2023/04/20 02:35:42;;;;;;;14.73;4.13;;;;;;;;;;5055211;28;20013;-71
2023/04/20 02:38:08;;;;;;;14.02;4.70;;;;;;;;;;5055095;28;20031;-72
2023/04/20 02:40:34;;;;;;;12.98;4.15;;;;;;;;;;5057555;28;20441;-72
2023/04/20 02:43:00;;;;;;;16.02;4.32;;;;;;;;;;5056482;28;20025;-72
2023/04/20 02:45:26;;;;;;;16.15;3.80;;;;;;;;;;5057693;28;20036;-71
2023/04/20 02:47:52;;;;;;;14.55;3.80;;;;;;;;;;5057900;28;20029;-71
2023/04/20 02:50:18;;;;;;;20.08;4.28;;;;;;;;;;5058522;28;20064;-72
2023/04/20 02:52:44;;;;;;;13.00;3.50;;;;;;;;;;5060452;28;20033;-72
2023/04/20 02:55:10;;;;;;;18.60;4.25;;;;;;;;;;5058319;28;20382;-73
2023/04/20 02:57:36;;;;;;;22.05;4.97;;;;;;;;;;5057676;28;20025;-72
2023/04/20 03:00:02;;;;;;;15.52;3.75;;;;;;;;;;5055499;28;20017;-69
2023/04/20 03:02:28;;;;;;;17.23;4.50;;;;;;;;;;5054544;28;20110;-70
2023/04/20 03:04:54;;;;;;;19.08;4.15;;;;;;;;;;5054648;28;20375;-70
2023/04/20 03:07:20;;;;;;;20.80;4.45;;;;;;;;;;5054918;28;20025;-70
2023/04/20 03:09:46;;;;;;;17.85;4.57;;;;;;;;;;5054576;28;20029;-71
2023/04/20 03:12:13;;;;;;;15.77;4.25;;;;;;;;;;5054445;28;20029;-70
2023/04/20 03:14:39;;;;;;;14.15;3.95;;;;;;;;;;5054686;28;20093;-71
2023/04/20 03:17:05;;;;;;;17.17;4.65;;;;;;;;;;5054350;28;20364;-69
2023/04/20 03:19:31;;;;;;;21.85;5.47;;;;;;;;;;5054330;28;20479;-70
2023/04/20 03:21:57;;;;;;;18.17;4.75;;;;;;;;;;5068452;28;20028;-71
2023/04/20 03:24:23;;;;;;;16.77;4.88;;;;;;;;;;5074198;28;20036;-71
2023/04/20 03:26:50;;;;;;;14.90;4.10;;;;;;;;;;5074009;28;20037;-71
2023/04/20 03:29:15;;;;;;;15.20;4.95;;;;;;;;;;5074563;28;20037;-70
2023/04/20 03:31:41;;;;;;;19.23;4.32;;;;;;;;;;5073773;28;20540;-71
2023/04/20 03:34:07;;;;;;;18.83;4.38;;;;;;;;;;5074219;28;20104;-70
2023/04/20 03:36:33;;;;;;;15.80;4.22;;;;;;;;;;5064194;28;20172;-72
2023/04/20 03:38:59;;;;;;;20.52;5.22;;;;;;;;;;5053876;28;20028;-70
2023/04/20 03:41:25;;;;;;;26.85;5.30;;;;;;;;;;5056624;28;20082;-71
2023/04/20 03:43:51;;;;;;;14.43;4.97;;;;;;;;;;5073438;28;20482;-72
2023/04/20 03:46:17;;;;;;;16.38;4.75;;;;;;;;;;5073856;28;20020;-72
2023/04/20 03:48:43;;;;;;;20.50;5.15;;;;;;;;;;5059235;28;20375;-71
2023/04/20 03:51:09;;;;;;;15.75;4.60;;;;;;;;;;5053789;28;20060;-72
2023/04/20 03:53:35;;;;;;;19.33;5.10;;;;;;;;;;5056369;28;20036;-72
2023/04/20 03:56:01;;;;;;;21.08;5.13;;;;;;;;;;5054425;28;20078;-71
2023/04/20 03:58:27;;;;;;;25.75;5.10;;;;;;;;;;5052853;28;20025;-71
2023/04/20 04:01:00;;;;;;;18.33;4.50;;;;;;;;;;5053669;28;20021;-71
2023/04/20 04:03:26;;;;;;;19.98;5.22;;;;;;;;;;5056888;28;20098;-73
2023/04/20 04:05:52;;;;;;;17.83;5.32;;;;;;;;;;5062047;28;20052;-74
2023/04/20 04:08:18;;;;;;;18.48;5.57;;;;;;;;;;5058784;28;20033;-71
2023/04/20 04:10:44;;;;;;;20.77;5.20;;;;;;;;;;5059186;28;20463;-72
2023/04/20 04:13:10;;;;;;;30.30;5.25;;;;;;;;;;5057718;28;20037;-71
2023/04/20 04:15:36;;;;;;;25.38;6.03;;;;;;;;;;5053193;28;20111;-71
2023/04/20 04:18:02;;;;;;;20.35;6.20;;;;;;;;;;5053183;28;20036;-71
2023/04/20 04:20:28;;;;;;;24.98;7.57;;;;;;;;;;5056122;28;20029;-71
2023/04/20 04:22:54;;;;;;;15.93;5.70;;;;;;;;;;5052800;28;20029;-72
2023/04/20 04:25:22;;;;;;;17.13;5.75;;;;;;;;;;5053522;28;20070;-72
2023/04/20 04:27:48;;;;;;;21.58;5.72;;;;;;;;;;5058180;28;20027;-73
2023/04/20 04:30:14;;;;;;;21.35;5.90;;;;;;;;;;5056922;28;20040;-76
2023/04/20 04:32:40;;;;;;;21.42;6.28;;;;;;;;;;5050507;28;20334;-72
2023/04/20 04:35:06;;;;;;;20.00;5.47;;;;;;;;;;5053951;28;20094;-74
2023/04/20 04:37:32;;;;;;;31.20;6.57;;;;;;;;;;5053433;28;20021;-73
2023/04/20 04:39:58;;;;;;;23.45;6.50;;;;;;;;;;5057272;28;20431;-74
2023/04/20 04:42:26;;;;;;;25.13;6.60;;;;;;;;;;5054943;28;20025;-74
2023/04/20 04:44:53;;;;;;;22.13;6.30;;;;;;;;;;5047198;28;20524;-72
2023/04/20 04:47:20;;;;;;;24.95;6.47;;;;;;;;;;5056067;28;20024;-73
2023/04/20 04:49:46;;;;;;;26.40;6.97;;;;;;;;;;5056265;28;20029;-73
2023/04/20 04:52:12;;;;;;;26.50;6.75;;;;;;;;;;5056194;28;20040;-74
2023/04/20 04:54:38;;;;;;;24.38;6.95;;;;;;;;;;5054778;28;20017;-72
2023/04/20 04:57:04;;;;;;;25.27;6.18;;;;;;;;;;5056782;28;20021;-73
2023/04/20 04:59:30;;;;;;;25.90;6.32;;;;;;;;;;5059853;28;20107;-73
2023/04/20 05:01:56;;;;;;;24.05;6.43;;;;;;;;;;5059810;28;20063;-73
2023/04/20 05:04:22;;;;;;;23.85;6.63;;;;;;;;;;5052410;28;20506;-72
2023/04/20 05:06:48;;;;;;;26.50;6.50;;;;;;;;;;5055221;28;20031;-73
2023/04/20 05:09:15;;;;;;;24.52;7.22;;;;;;;;;;5053387;28;20037;-73
2023/04/20 05:11:40;;;;;;;27.58;6.85;;;;;;;;;;5053281;28;20025;-74
2023/04/20 05:14:07;;;;;;;23.65;6.93;;;;;;;;;;5054965;28;20062;-71
2023/04/20 05:16:32;;;;;;;23.98;6.53;;;;;;;;;;5053291;28;20367;-73
2023/04/20 05:18:58;;;;;;;23.42;6.15;;;;;;;;;;5055572;28;20050;-74
2023/04/20 05:21:25;;;;;;;23.33;6.65;;;;;;;;;;5055621;28;20021;-73
2023/04/20 05:23:51;;;;;;;28.02;7.13;;;;;;;;;;5057147;28;20033;-75
2023/04/20 05:26:17;;;;;;;23.73;6.53;;;;;;;;;;5049096;28;20478;-76
2023/04/20 05:28:43;;;;;;;28.63;7.25;;;;;;;;;;5058740;28;20072;-76
2023/04/20 05:31:09;;;;;;;27.67;7.60;;;;;;;;;;5061844;28;20093;-76
2023/04/20 05:33:35;;;;;;;29.00;7.35;;;;;;;;;;5056673;28;20471;-75
2023/04/20 05:36:01;;;;;;;26.83;6.93;;;;;;;;;;5056291;28;20475;-75
2023/04/20 05:38:27;;;;;;;32.85;7.72;;;;;;;;;;5055419;28;20028;-75
2023/04/20 05:40:52;;;;;;;27.75;8.05;;;;;;;;;;5054296;28;20017;-74
2023/04/20 05:43:19;;;;;;;27.73;7.45;;;;;;;;;;5060002;28;20082;-73
2023/04/20 05:45:45;;;;;;;23.02;7.63;;;;;;;;;;5054242;28;20036;-73
2023/04/20 05:48:11;;;;;;;31.77;7.30;;;;;;;;;;5054972;28;20032;-75
2023/04/20 05:50:37;;;;;;;32.55;7.72;;;;;;;;;;5056174;28;20044;-74
2023/04/20 05:53:04;;;;;;;26.08;7.60;;;;;;;;;;5054390;28;20036;-75
2023/04/20 05:55:29;;;;;;;29.30;7.10;;;;;;;;;;5055275;28;20037;-74
2023/04/20 05:57:55;;;;;;;28.27;7.80;;;;;;;;;;5056761;28;20025;-74
2023/04/20 06:00:22;;;;;;;31.23;7.75;;;;;;;;;;5055762;28;20040;-73
2023/04/20 06:02:48;;;;;;;30.77;7.65;;;;;;;;;;5053017;28;20505;-72
2023/04/20 06:05:14;;;;;;;31.33;8.23;;;;;;;;;;5053784;28;20037;-74
2023/04/20 06:07:40;;;;;;;32.63;7.32;;;;;;;;;;5055478;28;20048;-72
2023/04/20 06:10:07;;;;;;;31.08;7.43;;;;;;;;;;5056055;28;20036;-76
2023/04/20 06:12:34;;;;;;;30.75;8.02;;;;;;;;;;5055426;28;20028;-74
2023/04/20 06:15:01;;;;;;;27.08;7.72;;;;;;;;;;5056754;28;20418;-73
2023/04/20 06:17:27;;;;;;;37.90;9.02;;;;;;;;;;5055784;28;20017;-72
2023/04/20 06:19:53;;;;;;;29.52;7.82;;;;;;;;;;5058406;28;20025;-72
2023/04/20 06:22:19;;;;;;;37.28;13.80;;;;;;;;;;5051095;28;20352;-71
2023/04/20 06:24:45;;;;;;;25.77;7.68;;;;;;;;;;5051483;28;20021;-71
2023/04/20 06:27:11;;;;;;;25.63;7.75;;;;;;;;;;5051711;28;20521;-71
2023/04/20 06:29:37;;;;;;;31.67;8.25;;;;;;;;;;5050804;28;20074;-76
2023/04/20 06:32:04;;;;;;;28.48;7.75;;;;;;;;;;5051331;28;20121;-73
2023/04/20 06:34:30;;;;;;;26.98;8.27;;;;;;;;;;5051160;28;20033;-73
2023/04/20 06:36:56;;;;;;;32.55;7.88;;;;;;;;;;5051439;28;20386;-72
2023/04/20 06:39:22;;;;;;;33.40;8.98;;;;;;;;;;5051557;28;20033;-72
2023/04/20 06:41:48;;;;;;;32.15;8.32;;;;;;;;;;5051374;28;20033;-76
2023/04/20 06:44:14;;;;;;;27.77;7.93;;;;;;;;;;5051204;28;20033;-72
2023/04/20 06:46:40;;;;;;;24.98;7.20;;;;;;;;;;5051289;28;20382;-71
2023/04/20 06:49:06;;;;;;;27.70;7.68;;;;;;;;;;5050677;28;20025;-73
2023/04/20 06:51:32;;;;;;;21.70;8.27;;;;;;;;;;5051338;28;20036;-74
2023/04/20 06:53:58;;;;;;;26.45;7.97;;;;;;;;;;5054217;28;20074;-73
2023/04/20 06:56:24;;;;;;;27.50;7.95;;;;;;;;;;5055193;28;20445;-72
2023/04/20 06:58:50;;;;;;;36.10;9.00;;;;;;;;;;5055112;28;20040;-72
2023/04/20 07:01:16;;;;;;;33.58;8.90;;;;;;;;;;5055814;28;20055;-73
2023/04/20 07:03:42;;;;;;;27.77;8.27;;;;;;;;;;5054568;28;20111;-72
2023/04/20 07:06:10;;;;;;;38.42;10.10;;;;;;;;;;5054447;28;20556;-72
2023/04/20 07:08:36;;;;;;;26.25;8.40;;;;;;;;;;5054666;28;20041;-72
2023/04/20 07:11:02;;;;;;;31.58;9.32;;;;;;;;;;5055294;28;20036;-73
2023/04/20 07:13:30;;;;;;;34.33;9.85;;;;;;;;;;5054522;28;20159;-72
2023/04/20 07:15:56;;;;;;;32.67;9.40;;;;;;;;;;5054739;28;20541;-73
2023/04/20 07:18:22;;;;;;;36.22;8.73;;;;;;;;;;5055501;28;20086;-80
2023/04/20 07:20:48;;;;;;;33.58;9.45;;;;;;;;;;5056005;28;20021;-72
2023/04/20 07:23:14;;;;;;;32.00;9.70;;;;;;;;;;5054241;28;20094;-73
2023/04/20 07:25:40;;;;;;;35.60;10.15;;;;;;;;;;5055134;28;20039;-73
2023/04/20 07:28:06;;;;;;;32.05;11.50;;;;;;;;;;5054180;28;20045;-71
2023/04/20 07:30:32;;;;;;;39.97;11.65;;;;;;;;;;5053866;28;20039;-72
2023/04/20 07:32:58;;;;;;;46.65;12.07;;;;;;;;;;5053682;28;20025;-73
2023/04/20 07:35:24;;;;;;;46.53;13.32;;;;;;;;;;5054224;28;20433;-71
2023/04/20 07:37:50;;;;;;;38.63;11.93;;;;;;;;;;5055276;28;20555;-76
2023/04/20 07:40:16;;;;;;;41.78;13.20;;;;;;;;;;5055513;28;20059;-75
2023/04/20 07:42:42;;;;;;;31.10;10.63;;;;;;;;;;5053601;28;20032;-74
2023/04/20 07:45:10;;;;;;;38.45;11.88;;;;;;;;;;5054064;28;20025;-75
2023/04/20 07:47:36;;;;;;;37.90;10.15;;;;;;;;;;5053637;28;20100;-73
2023/04/20 07:50:03;;;;;;;30.50;9.38;;;;;;;;;;5053942;28;20071;-73
2023/04/20 07:52:29;;;;;;;32.72;8.48;;;;;;;;;;5053191;28;20025;-71
2023/04/20 07:54:58;;;;;;;36.22;13.32;;;;;;;;;;5051079;28;20027;-72
2023/04/20 07:57:28;;;;;;;38.72;10.45;;;;;;;;;;5069352;28;20120;-71
2023/04/20 07:59:54;;;;;;;30.33;8.57;;;;;;;;;;5061305;28;20159;-71
2023/04/20 08:02:20;;;;;;;27.13;8.60;;;;;;;;;;5053338;28;20021;-73
2023/04/20 08:04:47;;;;;;;30.92;8.45;;;;;;;;;;5052443;28;20040;-72
2023/04/20 08:07:13;;;;;;;30.20;8.75;;;;;;;;;;5053383;28;20490;-73
2023/04/20 08:09:39;;;;;;;38.08;9.45;;;;;;;;;;5053918;28;20037;-72
2023/04/20 08:12:05;;;;;;;35.85;8.85;;;;;;;;;;5053458;28;20032;-72
2023/04/20 08:14:32;;;;;;;25.55;8.73;;;;;;;;;;5054131;28;20426;-73
2023/04/20 08:16:58;;;;;;;26.98;9.38;;;;;;;;;;5053106;28;20017;-72
2023/04/20 08:19:25;;;;;;;37.70;9.82;;;;;;;;;;5052817;28;20061;-72
2023/04/20 08:21:51;;;;;;;32.05;9.52;;;;;;;;;;5052709;28;20504;-73
2023/04/20 08:24:18;;;;;;;32.67;9.68;;;;;;;;;;5053521;28;20454;-71
2023/04/20 08:26:44;;;;;;;36.53;8.73;;;;;;;;;;5052810;28;20080;-74
2023/04/20 08:29:10;;;;;;;32.00;9.43;;;;;;;;;;5052696;28;20104;-73
2023/04/20 08:31:36;;;;;;;30.27;8.98;;;;;;;;;;5052753;28;20120;-72
2023/04/20 08:34:02;;;;;;;36.55;10.20;;;;;;;;;;5053130;28;20021;-73
2023/04/20 08:36:28;;;;;;;28.20;9.35;;;;;;;;;;5053031;28;20017;-72
2023/04/20 08:39:04;;;;;;;34.33;8.95;;;;;;;;;;5052516;28;20068;-70
2023/04/20 08:41:30;;;;;;;27.42;8.82;;;;;;;;;;5052958;28;20509;-74
2023/04/20 08:43:56;;;;;;;35.30;9.45;;;;;;;;;;5052979;28;20108;-75
2023/04/20 08:46:23;;;;;;;29.50;8.75;;;;;;;;;;5055894;28;20102;-74
2023/04/20 08:48:50;;;;;;;27.77;9.10;;;;;;;;;;5054171;28;20025;-73
2023/04/20 08:51:16;;;;;;;35.63;10.32;;;;;;;;;;5052609;28;20029;-74
2023/04/20 08:53:43;;;;;;;25.85;8.68;;;;;;;;;;5052322;28;20071;-77
2023/04/20 08:56:09;;;;;;;32.92;9.50;;;;;;;;;;5052852;28;20112;-75
2023/04/20 08:58:37;;;;;;;32.38;9.57;;;;;;;;;;5052338;28;20032;-76
2023/04/20 09:01:03;;;;;;;28.25;10.05;;;21.60;1.00;;;;;;5054318;28;20292;-73
2023/04/20 09:03:37;;;;;;;28.17;8.52;;;8.80;99.90;;;;;;5052537;28;20502;-72
2023/04/20 09:06:13;;;;;;;27.37;9.33;;;8.60;99.90;;;;;;5052632;28;20028;-74
2023/04/20 09:08:40;;;;;;;33.17;9.20;;;8.60;99.90;;;;;;5053053;28;20271;-74
2023/04/20 09:11:06;;;;;;;28.75;9.13;;;8.60;99.90;;;;;;5052774;28;20025;-76
2023/04/20 09:13:32;;;;;;;28.52;10.13;;;8.70;99.90;;;;;;5052320;28;20104;-72
2023/04/20 09:16:12;;;;;;;27.17;9.02;;;8.70;99.90;;;;;;5052119;28;20021;-73
2023/04/20 09:18:38;;;;;;;32.70;9.07;;;8.90;99.90;;;;;;5052085;28;20051;-72
2023/04/20 09:21:10;;;;;;;33.22;9.68;;;9.00;99.90;;;;;;5052188;28;20056;-76
2023/04/20 09:23:36;;;;;;;29.50;10.23;;;9.10;99.90;;;;;;5051672;28;20545;-77
2023/04/20 09:26:02;;;;;;;23.75;9.07;;;9.20;99.90;;;;;;5053718;28;20044;-76
2023/04/20 09:28:37;;;;;;;25.40;8.75;;;9.50;99.90;;;;;;5052742;28;20363;-75
2023/04/20 09:31:03;;;;;;;24.27;9.18;;;9.60;99.90;;;;;;5053219;28;20021;-74
2023/04/20 09:33:31;;;;;;;26.67;8.95;;;9.70;99.90;;;;;;5053532;28;20035;-75
2023/04/20 09:36:04;;;;;;;26.75;8.80;;;9.80;99.90;;;;;;5052008;28;20036;-73
2023/04/20 09:38:29;;;;;;;31.63;9.40;;;9.70;99.90;;;;;;5051833;28;20048;-74
2023/04/20 09:41:00;;;;;;;25.20;8.50;;;9.70;99.90;;;;;;5051961;28;20382;-75
2023/04/20 09:43:27;;;;;;;28.08;9.27;;;9.70;99.90;;;;;;5052086;28;20040;-77
2023/04/20 09:45:55;;;;;;;32.97;9.43;;;9.70;99.90;;;;;;5051650;28;20041;-75
2023/04/20 09:48:21;;;;;;;26.98;9.07;;;9.60;99.90;;;;;;5051716;28;20032;-74
2023/04/20 09:50:47;;;;;;;36.33;10.35;;;9.50;99.90;;;;;;5051350;28;20562;-74
2023/04/20 09:53:16;;;;;;;35.60;10.15;;;9.50;99.90;;;;;;5051375;28;20024;-74
2023/04/20 09:55:46;;;;;;;26.90;9.77;;;9.50;99.90;;;;;;5051608;28;20448;-75
2023/04/20 09:58:13;;;;;;;28.60;10.57;;;9.40;99.90;;;;;;5051571;28;20410;-74
2023/04/20 10:00:38;;;;;;;28.67;10.10;;;9.40;99.90;;;;;;5051287;28;20028;-74
2023/04/20 10:03:07;;;;;;;30.27;9.10;;;9.40;99.90;;;;;;5051169;28;20029;-73
2023/04/20 10:05:35;;;;;;;33.22;9.23;;;9.50;99.90;;;;;;5051462;28;20021;-73
2023/04/20 10:08:01;;;;;;;33.75;9.73;;;9.40;99.90;;;;;;5051280;28;20037;-73
2023/04/20 10:10:28;;;;;;;34.05;10.13;;;9.40;99.90;;;;;;5051818;28;20117;-73
2023/04/20 10:12:56;;;;;;;34.50;9.73;;;9.40;99.90;;;;;;5053536;28;20032;-74
2023/04/20 10:15:23;;;;;;;37.63;10.98;;;9.50;99.90;;;;;;5051598;28;20029;-74
2023/04/20 10:17:49;;;;;;;30.15;9.73;;;9.60;99.90;;;;;;5051412;28;20044;-74
2023/04/20 10:20:28;;;;;;;33.70;9.38;;;9.70;99.90;;;;;;5051881;28;20428;-74
2023/04/20 10:23:07;;;;;;;32.60;9.23;;;10.00;99.90;;;;;;5051517;28;20037;-73
2023/04/20 10:25:32;;;;;;;33.75;10.13;;;10.30;99.90;;;;;;5051503;28;20487;-74
2023/04/20 10:28:03;;;;;;;29.92;9.60;;;10.60;99.90;;;;;;5052360;28;20032;-73
2023/04/20 10:30:30;;;;;;;31.52;9.73;;;10.80;99.90;;;;;;5038401;28;20505;-74
2023/04/20 10:33:21;;;;;;;29.50;9.13;;;10.90;99.00;;;;;;5055171;28;20028;-74
2023/04/20 10:35:49;;;;;;;36.58;10.18;;;11.00;97.70;;;;;;5053119;28;20057;-72
2023/04/20 10:38:29;;;;;;;28.23;9.32;;;11.00;96.10;;;;;;5055281;28;20021;-74
2023/04/20 10:40:55;;;;;;;30.00;9.07;;;10.80;95.80;;;;;;5055388;28;20061;-74
2023/04/20 10:43:21;;;;;;;24.85;8.70;;;10.70;95.30;;;;;;5054271;28;20036;-74
2023/04/20 10:45:47;;;;;;;25.65;9.50;;;10.50;96.40;;;;;;5054596;28;20028;-74
2023/04/20 10:48:13;;;;;;;32.28;10.20;;;10.40;98.40;;;;;;5054278;28;20533;-73
2023/04/20 10:50:39;;;;;;;29.63;8.57;;;10.20;99.90;;;;;;5054117;28;20032;-76
2023/04/20 10:53:04;;;;;;;30.92;9.18;;;10.10;99.90;;;;;;5053995;28;20033;-73
2023/04/20 10:55:30;;;;;;;26.80;9.60;;;10.00;99.90;;;;;;5054543;28;20158;-74
2023/04/20 10:57:56;;;;;;;32.10;8.95;;;9.90;99.90;;;;;;5054287;28;20024;-74
2023/04/20 11:00:27;;;;;;;34.17;10.00;;;9.90;99.90;;;;;;5054280;28;20021;-73
2023/04/20 11:02:55;;;;;;;26.95;9.38;;;10.00;99.90;;;;;;5054059;28;20070;-73
2023/04/20 11:05:22;;;;;;;33.33;10.50;;;10.00;99.90;;;;;;5054354;28;20029;-76
2023/04/20 11:07:55;;;;;;;29.10;10.02;;;10.00;99.90;;;;;;5054184;28;20041;-74
2023/04/20 11:10:39;;;;;;;39.30;9.57;;;10.10;99.90;;;;;;5054224;28;20354;-73
2023/04/20 11:13:04;;;;;;;35.15;9.98;;;10.10;99.90;;;;;;5053726;28;20490;-73
2023/04/20 11:15:34;;;;;;;35.60;10.32;;;10.00;99.90;;;;;;5054190;28;20024;-75
2023/04/20 11:18:26;;;;;;;31.20;9.85;;;10.10;99.90;;;;;;5054116;28;20017;-74
2023/04/20 11:20:55;;;;;;;31.95;9.43;;;10.20;99.90;;;;;;5053068;28;20036;-74
2023/04/20 11:23:22;;;;;;;31.85;9.75;;;10.30;99.90;;;;;;5055248;28;20025;-74
2023/04/20 11:25:55;;;;;;;24.05;9.27;;;10.40;99.90;;;;;;5055386;28;20032;-75
2023/04/20 11:28:21;;;;;;;28.25;10.25;;;10.70;99.70;;;;;;5055002;28;20023;-75
2023/04/20 11:30:48;;;;;;;27.10;10.10;;;10.80;95.90;;;;;;5053712;28;20028;-74
2023/04/20 11:33:23;;;;;;;29.85;10.10;;;10.80;95.00;;;;;;5055101;28;20410;-75
2023/04/20 11:35:49;;;;;;;26.52;9.77;;;10.90;95.50;;;;;;5055980;28;20439;-76
2023/04/20 11:38:30;;;;;;;37.55;11.00;;;10.90;96.00;;;;;;5054227;28;20064;-74
2023/04/20 11:40:56;;;;;;;29.08;10.02;;;11.10;96.40;;;;;;5053951;28;20021;-73
2023/04/20 11:43:21;;;;;;;37.00;10.70;;;11.10;96.40;;;;;;5053608;28;20025;-73
2023/04/20 11:45:48;;;;;;;33.95;10.98;;;11.10;95.10;;;;;;5053630;28;20044;-74
2023/04/20 11:48:13;;;;;;;32.15;10.77;;;11.10;94.30;;;;;;5053716;28;20143;-74
2023/04/20 11:50:39;;;;;;;26.92;10.63;;;11.00;94.30;;;;;;5053124;28;20471;-74
2023/04/20 11:53:05;;;;;;;28.98;10.93;;;11.00;94.50;;;;;;5053342;28;20029;-72
2023/04/20 11:55:30;;;;;;;29.50;10.80;;;10.90;93.90;;;;;;5054864;28;20055;-72
2023/04/20 11:57:56;;;;;;;29.05;11.15;;;10.80;94.60;;;;;;5054292;28;20040;-73
2023/04/20 12:00:22;;;;;;;33.17;13.02;;;10.80;96.80;;;;;;5053539;28;20025;-74
2023/04/20 12:02:47;;;;;;;35.15;11.98;;;10.80;98.60;;;;;;5052902;28;20083;-74
2023/04/20 12:05:13;;;;;;;29.00;12.18;;;10.80;96.70;;;;;;5053277;28;20025;-74
2023/04/20 12:07:39;;;;;;;34.60;11.27;;;10.80;95.80;;;;;;5053028;28;20040;-73
2023/04/20 12:10:06;;;;;;;31.10;11.90;;;10.80;96.50;;;;;;5053022;28;20021;-77
2023/04/20 12:12:32;;;;;;;23.63;10.48;;;10.90;97.70;;;;;;5053494;28;20021;-74
2023/04/20 12:14:58;;;;;;;29.20;12.20;;;10.90;95.30;;;;;;5053205;28;20495;-73
2023/04/20 12:17:24;;;;;;;31.23;11.82;;;10.70;96.20;;;;;;5053339;28;20029;-73
2023/04/20 12:19:49;;;;;;;32.47;12.20;;;10.70;97.70;;;;;;5052809;28;20528;-74
2023/04/20 12:22:15;;;;;;;31.58;11.05;;;10.70;96.10;;;;;;5053388;28;20021;-74
2023/04/20 12:24:41;;;;;;;37.28;12.73;;;10.60;97.70;;;;;;5053431;28;20084;-73
2023/04/20 12:27:06;;;;;;;32.80;12.52;;;10.70;99.50;;;;;;5053892;28;20059;-73
2023/04/20 12:29:32;;;;;;;34.83;12.52;;;10.60;99.90;;;;;;5054065;28;20090;-75
2023/04/20 12:31:58;;;;;;;35.38;12.10;;;10.60;99.90;;;;;;5053351;28;20024;-74
2023/04/20 12:34:24;;;;;;;30.15;12.20;;;10.60;99.90;;;;;;5054100;28;20493;-73
2023/04/20 12:36:49;;;;;;;40.13;13.95;;;10.60;99.90;;;;;;5056050;28;20021;-76
2023/04/20 12:39:15;;;;;;;24.33;11.60;;;10.60;99.60;;;;;;5054321;28;20071;-74
2023/04/20 12:41:41;;;;;;;32.60;13.05;;;10.50;99.90;;;;;;5054472;28;20088;-74
2023/04/20 12:44:06;;;;;;;36.50;12.63;;;10.50;99.90;;;;;;5054235;28;20386;-76
2023/04/20 12:46:32;;;;;;;37.85;13.77;;;10.50;99.90;;;;;;5054214;28;20025;-74
2023/04/20 12:48:58;;;;;;;31.70;13.85;;;10.50;99.90;;;;;;5054303;28;20045;-75
2023/04/20 12:51:23;;;;;;;33.80;13.57;;;10.50;99.90;;;;;;5054322;28;20408;-74
2023/04/20 12:53:49;;;;;;;37.95;14.18;;;10.50;99.90;;;;;;5054172;28;20025;-75
2023/04/20 12:56:15;;;;;;;38.38;13.68;;;10.50;99.90;;;;;;5044951;28;20025;-75
2023/04/20 12:58:40;;;;;;;35.08;14.65;;;10.50;99.90;;;;;;5048130;28;20489;-75
2023/04/20 13:01:06;;;;;;;34.90;13.55;;;10.60;99.90;;;;;;5060566;28;20037;-74
2023/04/20 13:03:31;;;;;;;31.67;14.02;;;10.70;99.90;;;;;;5055924;28;20040;-73
2023/04/20 13:05:58;;;;;;;29.65;13.25;;;10.80;99.90;;;;;;5053933;28;20028;-74
2023/04/20 13:08:24;;;;;;;35.92;13.43;;;11.00;99.70;;;;;;5054867;28;20048;-73
2023/04/20 13:10:50;;;;;;;33.47;13.65;;;11.10;99.90;;;;;;5055012;28;20017;-76
2023/04/20 13:13:16;;;;;;;41.63;14.10;;;11.10;99.50;;;;;;5055858;28;20372;-75
2023/04/20 13:15:41;;;;;;;32.22;13.52;;;11.20;97.10;;;;;;5039659;28;20073;-74
2023/04/20 13:18:08;;;;;;;30.88;13.00;;;11.20;97.00;;;;;;5061285;28;20036;-77
2023/04/20 13:20:34;;;;;;;34.47;13.48;;;11.10;96.30;;;;;;5066598;28;20086;-76
2023/04/20 13:23:01;;;;;;;40.63;14.38;;;11.10;96.00;;;;;;5066195;28;20048;-77
2023/04/20 13:25:28;;;;;;;36.63;14.38;;;11.10;96.20;;;;;;5060823;28;20070;-75
2023/04/20 13:27:55;;;;;;;33.10;12.73;;;11.20;96.40;;;;;;5054079;28;20479;-77
2023/04/20 13:30:22;;;;;;;34.15;13.18;;;11.40;95.80;;;;;;5052626;28;20108;-74
2023/04/20 13:32:48;;;;;;;34.15;12.55;;;11.80;93.60;;;;;;5055939;28;20131;-74
2023/04/20 13:35:14;;;;;;;33.28;12.57;;;12.10;85.80;;;;;;5053732;28;20067;-75
2023/04/20 13:37:40;;;;;;;39.03;13.73;;;12.20;79.80;;;;;;5052416;28;20029;-72
2023/04/20 13:40:07;;;;;;;30.45;12.23;;;12.20;71.90;;;;;;5052134;28;20013;-73
2023/04/20 13:42:33;;;;;;;34.97;12.95;;;12.20;70.70;;;;;;5051500;28;20033;-74
2023/04/20 13:44:59;;;;;;;32.90;12.77;;;12.30;67.10;;;;;;5052164;28;20082;-73